createdAt,value
2018-11-29T00:00:25.788Z,98655.19
2018-11-29T00:03:00.691Z,98655.19
2018-11-29T00:05:35.382Z,98668.22
2018-11-29T00:08:10.300Z,98645.45
2018-11-29T00:10:47.308Z,98645.45
2018-11-29T00:13:20.290Z,98646.27
2018-11-29T00:15:54.949Z,98644.13
2018-11-29T00:18:29.731Z,98656.01
2018-11-29T00:21:04.509Z,98651.52
2018-11-29T00:23:39.289Z,98650.94
2018-11-29T00:26:13.984Z,98650.94
2018-11-29T00:28:48.953Z,98654.48
2018-11-29T00:31:23.840Z,98644.19
2018-11-29T00:33:58.819Z,98648.83
2018-11-29T00:36:33.588Z,98655.06
2018-11-29T00:39:09.377Z,98651.18
2018-11-29T00:41:44.274Z,98640.07
2018-11-29T00:44:17.702Z,98640.07
2018-11-29T00:46:52.291Z,98652.91
2018-11-29T00:49:25.351Z,98652.91
2018-11-29T00:52:00.290Z,98641.44
2018-11-29T00:54:33.765Z,98641.44
2018-11-29T00:57:08.712Z,98647.12
2018-11-29T00:59:43.941Z,98634.66
2018-11-29T01:02:18.899Z,98634.66
2018-11-29T01:04:54.017Z,98646.92
2018-11-29T01:07:28.955Z,98639.12
2018-11-29T01:10:04.440Z,98634.28
2018-11-29T01:12:39.275Z,98635.41
2018-11-29T01:15:19.497Z,98635.41
2018-11-29T01:17:53.012Z,98637.37
2018-11-29T01:20:28.957Z,98631.75
2018-11-29T01:23:03.743Z,98629.37
2018-11-29T01:25:44.074Z,98640.69
2018-11-29T01:28:18.960Z,98629.98
2018-11-29T01:30:55.394Z,98621.23
2018-11-29T01:33:30.285Z,98621.61
2018-11-29T01:36:04.805Z,98630.73
2018-11-29T01:38:39.640Z,98621.98
2018-11-29T01:41:14.383Z,98625.09
2018-11-29T01:43:49.082Z,98616.13
2018-11-29T01:46:23.953Z,98616.13
2018-11-29T01:48:58.724Z,98624.68
2018-11-29T01:51:33.433Z,98619.81
2018-11-29T01:54:08.285Z,98609.90
2018-11-29T01:56:40.994Z,98609.90
2018-11-29T01:59:16.303Z,98609.11
2018-11-29T02:01:51.287Z,98612.42
2018-11-29T02:04:26.911Z,98609.49
2018-11-29T02:07:01.766Z,98626.65
2018-11-29T02:09:37.284Z,98591.61
2018-11-29T02:12:12.289Z,98592.97
2018-11-29T02:14:47.489Z,98591.41
2018-11-29T02:17:21.942Z,98581.89
2018-11-29T02:19:57.343Z,98591.05
2018-11-29T02:22:31.940Z,98595.92
2018-11-29T02:25:06.988Z,98612.07
2018-11-29T02:27:41.893Z,98584.23
2018-11-29T02:30:25.294Z,98585.78
2018-11-29T02:32:59.901Z,98591.05
2018-11-29T02:35:33.897Z,98582.48
2018-11-29T02:38:08.505Z,98570.80
2018-11-29T02:40:47.645Z,98581.31
2018-11-29T02:43:22.625Z,98581.31
2018-11-29T02:45:57.302Z,98576.44
2018-11-29T02:48:30.050Z,98574.13
2018-11-29T02:51:02.713Z,98575.89
2018-11-29T02:53:37.417Z,98580.53
2018-11-29T02:56:12.298Z,98574.89
2018-11-29T02:58:44.698Z,98574.89
2018-11-29T03:01:19.391Z,98566.53
2018-11-29T03:03:53.920Z,98571.97
2018-11-29T03:06:28.786Z,98560.50
2018-11-29T03:09:04.120Z,98564.00
2018-11-29T03:11:38.895Z,98564.00
2018-11-29T03:14:13.953Z,98549.98
2018-11-29T03:16:48.761Z,98553.89
2018-11-29T03:20:55.784Z,98544.34
2018-11-29T03:23:30.959Z,98555.25
2018-11-29T03:26:05.320Z,98552.14
2018-11-29T03:28:39.952Z,98547.45
2018-11-29T03:31:14.324Z,98544.55
2018-11-29T03:33:48.953Z,98537.16
2018-11-29T03:36:23.323Z,98545.51
2018-11-29T03:38:55.826Z,98534.43
2018-11-29T03:41:30.295Z,98538.31
2018-11-29T03:44:02.719Z,98536.38
2018-11-29T03:46:37.435Z,98535.39
2018-11-29T03:49:12.298Z,98533.25
2018-11-29T03:51:46.949Z,98529.73
2018-11-29T03:54:22.978Z,98546.07
2018-11-29T03:56:57.431Z,98529.52
2018-11-29T03:59:32.328Z,98543.52
2018-11-29T04:02:06.916Z,98530.89
2018-11-29T04:04:41.958Z,98530.89
2018-11-29T04:07:16.413Z,98550.96
2018-11-29T04:09:51.315Z,98551.34
2018-11-29T04:12:25.750Z,98553.08
2018-11-29T04:15:00.335Z,98567.51
2018-11-29T04:17:33.057Z,98567.51
2018-11-29T04:20:08.992Z,98564.56
2018-11-29T04:22:43.762Z,98562.62
2018-11-29T04:25:19.364Z,98553.89
2018-11-29T04:27:52.044Z,98562.82
2018-11-29T04:30:27.340Z,98558.73
2018-11-29T04:33:01.793Z,98556.81
2018-11-29T04:35:36.373Z,98548.22
2018-11-29T04:38:11.290Z,98545.52
2018-11-29T04:40:49.930Z,98545.52
2018-11-29T04:43:24.749Z,98535.78
2018-11-29T04:46:54.383Z,98515.31
2018-11-29T04:49:29.332Z,98515.31
2018-11-29T04:52:03.789Z,98517.84
2018-11-29T04:54:39.130Z,98535.20
2018-11-29T04:57:13.422Z,98526.80
2018-11-29T04:59:46.295Z,98526.80
2018-11-29T05:02:19.293Z,98526.59
2018-11-29T05:04:52.369Z,98522.31
2018-11-29T05:07:26.679Z,98527.56
2018-11-29T05:10:01.366Z,98515.86
2018-11-29T05:12:36.120Z,98515.86
2018-11-29T05:15:13.433Z,98518.02
2018-11-29T05:17:47.903Z,98517.84
2018-11-29T05:20:22.755Z,98517.46
2018-11-29T05:22:57.303Z,98518.05
2018-11-29T05:25:32.374Z,98518.05
2018-11-29T05:28:07.311Z,98519.59
2018-11-29T05:30:45.496Z,98519.59
2018-11-29T05:33:20.315Z,98516.87
2018-11-29T05:35:54.927Z,98516.87
2018-11-29T05:38:29.421Z,98525.61
2018-11-29T05:41:03.910Z,98520.77
2018-11-29T05:43:38.545Z,98519.59
2018-11-29T05:46:12.928Z,98524.84
2018-11-29T05:48:47.789Z,98507.70
2018-11-29T05:51:22.420Z,98504.22
2018-11-29T05:53:57.381Z,98500.91
2018-11-29T05:56:32.292Z,98500.91
2018-11-29T05:59:05.141Z,98511.45
2018-11-29T06:01:42.376Z,98505.22
2018-11-29T06:04:17.407Z,98487.32
2018-11-29T06:06:52.379Z,98491.40
2018-11-29T06:09:27.331Z,98494.70
2018-11-29T06:12:02.293Z,98490.03
2018-11-29T06:14:38.301Z,98489.44
2018-11-29T06:17:13.294Z,98489.66
2018-11-29T06:22:13.333Z,98507.54
2018-11-29T06:24:46.536Z,98511.44
2018-11-29T06:27:21.295Z,98508.70
2018-11-29T06:30:10.500Z,98510.65
2018-11-29T06:32:45.294Z,98538.89
2018-11-29T06:35:20.311Z,98538.89
2018-11-29T06:37:53.128Z,98519.02
2018-11-29T06:40:28.333Z,98525.08
2018-11-29T06:43:03.296Z,98512.22
2018-11-29T06:45:38.346Z,98520.01
2018-11-29T06:48:13.303Z,98515.16
2018-11-29T06:50:49.290Z,98510.68
2018-11-29T06:53:40.440Z,98500.75
2018-11-29T06:56:14.965Z,98501.52
2018-11-29T06:58:51.718Z,98504.08
2018-11-29T07:01:25.086Z,98496.29
2018-11-29T07:04:00.301Z,98492.95
2018-11-29T07:06:34.806Z,98494.53
2018-11-29T07:09:11.968Z,98499.97
2018-11-29T07:11:45.076Z,98500.95
2018-11-29T07:14:20.341Z,98498.02
2018-11-29T07:16:55.476Z,98486.92
2018-11-29T07:19:30.302Z,98481.27
2018-11-29T07:22:06.287Z,98481.27
2018-11-29T07:24:41.304Z,98483.61
2018-11-29T07:27:16.304Z,98480.11
2018-11-29T07:29:49.281Z,98485.15
2018-11-29T07:35:09.718Z,98488.84
2018-11-29T07:37:44.460Z,98488.66
2018-11-29T07:43:20.416Z,98486.67
2018-11-29T07:45:55.300Z,98487.06
2018-11-29T07:48:28.377Z,98487.06
2018-11-29T07:51:03.293Z,98482.77
2018-11-29T07:53:37.289Z,98485.67
2018-11-29T07:56:11.931Z,98474.56
2018-11-29T07:58:51.595Z,98476.50
2018-11-29T08:01:22.427Z,98479.97
2018-11-29T08:03:57.326Z,98477.41
2018-11-29T08:06:32.292Z,98477.09
2018-11-29T08:09:05.665Z,98473.16
2018-11-29T08:11:38.680Z,98457.81
2018-11-29T08:14:13.780Z,98462.85
2018-11-29T08:16:48.356Z,98466.07
2018-11-29T08:19:21.290Z,98466.07
2018-11-29T08:21:56.288Z,98475.98
2018-11-29T08:24:29.329Z,98479.23
2018-11-29T08:27:04.295Z,98480.99
2018-11-29T08:29:37.293Z,98473.94
2018-11-29T08:32:12.341Z,98479.70
2018-11-29T08:34:47.338Z,98475.76
2018-11-29T08:37:20.298Z,98466.74
2018-11-29T08:39:53.125Z,98488.91
2018-11-29T08:42:28.304Z,98472.11
2018-11-29T08:45:03.302Z,98456.79
2018-11-29T08:47:38.297Z,98463.55
2018-11-29T08:50:17.467Z,98454.52
2018-11-29T08:52:50.603Z,98449.84
2018-11-29T08:55:25.397Z,98439.94
2018-11-29T08:58:00.299Z,98431.50
2018-11-29T09:00:36.303Z,98431.30
2018-11-29T09:03:36.288Z,98423.84
2018-11-29T09:06:11.282Z,98437.56
2018-11-29T09:08:44.114Z,98437.56
2018-11-29T09:11:19.290Z,98434.67
2018-11-29T09:13:52.297Z,98427.98
2018-11-29T09:16:27.296Z,98416.67
2018-11-29T09:19:00.294Z,98419.34
2018-11-29T09:21:35.296Z,98419.60
2018-11-29T09:24:08.286Z,98431.97
2018-11-29T09:26:43.301Z,98434.05
2018-11-29T09:29:16.287Z,98440.58
2018-11-29T09:31:51.286Z,98432.16
2018-11-29T09:34:24.305Z,98434.27
2018-11-29T09:36:59.302Z,98419.61
2018-11-29T09:39:32.340Z,98425.66
2018-11-29T09:42:07.695Z,98422.75
2018-11-29T09:44:42.783Z,98424.52
2018-11-29T09:47:15.912Z,98440.80
2018-11-29T09:49:50.922Z,98428.44
2018-11-29T09:52:25.409Z,98433.52
2018-11-29T09:55:00.333Z,98435.92
2018-11-29T09:57:35.302Z,98430.73
2018-11-29T10:00:11.610Z,98418.98
2018-11-29T10:03:05.301Z,98409.23
2018-11-29T10:05:40.406Z,98409.23
2018-11-29T10:08:17.297Z,98402.13
2018-11-29T10:10:54.285Z,98402.13
2018-11-29T10:13:27.105Z,98403.97
2018-11-29T10:16:01.793Z,98389.89
2018-11-29T10:18:37.051Z,98390.28
2018-11-29T10:21:12.341Z,98381.38
2018-11-29T10:23:47.299Z,98387.30
2018-11-29T10:26:22.299Z,98387.73
2018-11-29T10:28:55.280Z,98375.47
2018-11-29T10:31:30.327Z,98385.20
2018-11-29T10:34:03.343Z,98385.20
2018-11-29T10:36:37.936Z,98365.77
2018-11-29T10:39:13.749Z,98363.53
2018-11-29T10:41:46.418Z,98363.44
2018-11-29T10:44:22.314Z,98356.44
2018-11-29T10:46:57.293Z,98356.44
2018-11-29T10:49:32.312Z,98362.13
2018-11-29T10:52:07.290Z,98364.38
2018-11-29T10:54:41.980Z,98365.22
2018-11-29T10:57:19.291Z,98353.25
2018-11-29T10:59:52.079Z,98348.27
2018-11-29T11:02:30.484Z,98358.28
2018-11-29T11:05:05.328Z,98358.20
2018-11-29T11:07:38.859Z,98359.53
2018-11-29T11:10:13.746Z,98358.88
2018-11-29T11:12:48.439Z,98358.56
2018-11-29T11:15:23.317Z,98358.56
2018-11-29T11:20:45.379Z,98347.35
2018-11-29T11:23:18.295Z,98352.91
2018-11-29T11:25:53.650Z,98341.45
2018-11-29T11:28:28.714Z,98342.60
2018-11-29T11:31:03.782Z,98342.60
2018-11-29T11:33:38.961Z,98332.58
2018-11-29T11:36:14.290Z,98324.73
2018-11-29T11:38:48.125Z,98323.59
2018-11-29T11:41:22.893Z,98321.05
2018-11-29T11:43:57.957Z,98315.95
2018-11-29T11:46:32.373Z,98313.23
2018-11-29T11:49:05.282Z,98303.20
2018-11-29T11:51:40.280Z,98314.36
2018-11-29T11:54:15.288Z,98292.97
2018-11-29T11:56:50.283Z,98292.97
2018-11-29T11:59:23.470Z,98291.64
2018-11-29T12:01:58.315Z,98284.66
2018-11-29T12:04:31.291Z,98284.66
2018-11-29T12:08:17.656Z,98276.08
2018-11-29T12:10:54.322Z,98276.08
2018-11-29T12:13:32.954Z,98272.28
2018-11-29T12:16:08.279Z,98272.28
2018-11-29T12:18:43.343Z,98278.02
2018-11-29T12:21:18.280Z,98282.98
2018-11-29T12:23:56.710Z,98259.56
2018-11-29T12:26:31.588Z,98273.92
2018-11-29T12:29:06.775Z,98273.92
2018-11-29T12:32:03.273Z,98273.78
2018-11-29T12:34:38.308Z,98257.95
2018-11-29T12:37:13.293Z,98265.75
2018-11-29T12:39:48.297Z,98260.36
2018-11-29T12:42:23.283Z,98255.37
2018-11-29T12:44:57.346Z,98248.90
2018-11-29T12:47:30.346Z,98229.97
2018-11-29T12:50:05.302Z,98231.67
2018-11-29T12:52:39.956Z,98228.63
2018-11-29T12:55:16.385Z,98230.61
2018-11-29T12:58:04.447Z,98215.17
2018-11-29T13:00:26.714Z,98209.34
2018-11-29T13:03:02.285Z,98206.77
2018-11-29T13:05:40.305Z,98207.95
2018-11-29T13:08:15.295Z,98208.38
2018-11-29T13:10:56.288Z,98216.20
2018-11-29T13:13:31.287Z,98231.71
2018-11-29T13:16:05.813Z,98230.42
2018-11-29T13:18:41.295Z,98217.16
2018-11-29T13:21:16.281Z,98220.75
2018-11-29T13:23:49.311Z,98210.91
2018-11-29T13:26:24.282Z,98219.39
2018-11-29T13:28:59.287Z,98213.30
2018-11-29T13:31:34.499Z,98208.81
2018-11-29T13:34:09.369Z,98202.21
2018-11-29T13:36:44.368Z,98200.16
2018-11-29T13:39:17.369Z,98200.16
2018-11-29T13:41:52.482Z,98199.39
2018-11-29T13:44:27.388Z,98199.39
2018-11-29T13:47:02.370Z,98196.63
2018-11-29T13:49:37.297Z,98192.42
2018-11-29T13:52:12.281Z,98192.42
2018-11-29T13:54:45.152Z,98188.35
2018-11-29T13:57:20.285Z,98197.45
2018-11-29T13:59:53.226Z,98182.38
2018-11-29T14:02:27.955Z,98177.94
2018-11-29T14:05:02.747Z,98179.86
2018-11-29T14:07:37.615Z,98177.97
2018-11-29T14:10:19.141Z,98164.10
2018-11-29T14:12:53.032Z,98180.56
2018-11-29T14:15:29.747Z,98173.70
2018-11-29T14:18:04.696Z,98170.34
2018-11-29T14:20:39.353Z,98169.88
2018-11-29T14:23:14.271Z,98169.88
2018-11-29T14:25:51.394Z,98155.61
2018-11-29T14:28:26.279Z,98157.34
2018-11-29T14:31:02.958Z,98160.16
2018-11-29T14:33:39.945Z,98158.50
2018-11-29T14:36:14.451Z,98156.97
2018-11-29T14:38:49.284Z,98157.47
2018-11-29T14:41:24.288Z,98157.47
2018-11-29T14:43:57.342Z,98155.19
2018-11-29T14:46:32.277Z,98150.38
2018-11-29T14:49:05.372Z,98153.48
2018-11-29T14:51:48.029Z,98149.36
2018-11-29T14:54:15.338Z,98149.36
2018-11-29T14:56:50.369Z,98160.90
2018-11-29T14:59:25.321Z,98158.67
2018-11-29T15:01:59.910Z,98146.92
2018-11-29T15:04:34.689Z,98156.53
2018-11-29T15:07:09.511Z,98148.08
2018-11-29T15:09:44.289Z,98148.08
2018-11-29T15:12:18.757Z,98158.17
2018-11-29T15:14:53.388Z,98158.45
2018-11-29T15:17:28.271Z,98158.45
2018-11-29T15:20:01.311Z,98162.83
2018-11-29T15:22:36.284Z,98163.22
2018-11-29T15:25:11.998Z,98191.25
2018-11-29T15:27:46.907Z,98160.35
2018-11-29T15:30:23.722Z,98161.39
2018-11-29T15:32:58.423Z,98151.00
2018-11-29T15:35:31.287Z,98140.01
2018-11-29T15:38:06.449Z,98156.32
2018-11-29T15:40:41.549Z,98156.37
2018-11-29T15:43:16.906Z,98146.95
2018-11-29T15:45:53.519Z,98174.14
2018-11-29T15:48:28.277Z,98145.44
2018-11-29T15:51:03.269Z,98155.91
2018-11-29T15:53:36.284Z,98155.91
2018-11-29T15:56:12.276Z,98168.39
2018-11-29T15:58:45.311Z,98170.72
2018-11-29T16:01:20.281Z,98155.13
2018-11-29T16:03:53.299Z,98169.11
2018-11-29T16:06:28.357Z,98167.80
2018-11-29T16:09:01.061Z,98170.87
2018-11-29T16:11:36.287Z,98157.67
2018-11-29T16:14:09.280Z,98150.26
2018-11-29T16:16:44.282Z,98150.26
2018-11-29T16:19:19.292Z,98150.24
2018-11-29T16:21:54.287Z,98147.47
2018-11-29T16:24:29.304Z,98129.53
2018-11-29T16:27:03.905Z,98131.15
2018-11-29T16:29:39.292Z,98121.97
2018-11-29T16:32:19.932Z,98121.15
2018-11-29T16:34:54.957Z,98116.27
2018-11-29T16:37:29.966Z,98125.83
2018-11-29T16:40:04.687Z,98123.61
2018-11-29T16:42:39.370Z,98123.61
2018-11-29T16:45:14.338Z,98114.41
2018-11-29T16:47:51.427Z,98124.20
2018-11-29T16:50:26.738Z,98116.58
2018-11-29T16:53:01.430Z,98116.58
2018-11-29T16:55:34.285Z,98093.44
2018-11-29T16:58:18.119Z,98114.31
2018-11-29T17:03:38.950Z,98108.20
2018-11-29T17:06:13.643Z,98093.23
2018-11-29T17:08:48.290Z,98093.23
2018-11-29T17:11:23.282Z,98095.53
2018-11-29T17:13:56.075Z,98091.81
2018-11-29T17:16:30.737Z,98092.97
2018-11-29T17:19:05.416Z,98092.28
2018-11-29T17:21:40.341Z,98095.20
2018-11-29T17:24:14.933Z,98095.20
2018-11-29T17:26:47.825Z,98090.38
2018-11-29T17:29:22.892Z,98087.89
2018-11-29T17:31:57.460Z,98081.00
2018-11-29T17:34:32.304Z,98083.30
2018-11-29T17:37:06.775Z,98083.30
2018-11-29T17:39:41.669Z,98075.55
2018-11-29T17:42:14.303Z,98072.42
2018-11-29T17:44:47.099Z,98067.19
2018-11-29T17:47:21.942Z,98069.25
2018-11-29T17:49:57.119Z,98069.25
2018-11-29T17:52:31.714Z,98066.33
2018-11-29T17:55:06.337Z,98046.05
2018-11-29T17:57:39.051Z,98046.05
2018-11-29T18:00:36.323Z,98043.41
2018-11-29T18:03:10.347Z,98050.27
2018-11-29T18:05:47.198Z,98028.28
2018-11-29T18:08:22.159Z,98028.28
2018-11-29T18:11:03.505Z,98029.56
2018-11-29T18:14:21.631Z,98031.89
2018-11-29T18:16:56.953Z,98041.91
2018-11-29T18:19:31.973Z,98031.47
2018-11-29T18:22:08.384Z,98059.55
2018-11-29T18:24:43.316Z,98031.87
2018-11-29T18:30:00.402Z,98038.22
2018-11-29T18:32:35.674Z,98038.77
2018-11-29T18:35:11.965Z,98049.43
2018-11-29T18:37:46.760Z,98049.43
2018-11-29T18:40:24.320Z,98037.30
2018-11-29T18:43:03.792Z,98037.30
2018-11-29T18:45:38.739Z,98040.09
2018-11-29T18:48:15.291Z,98054.52
2018-11-29T18:50:52.698Z,98035.02
2018-11-29T18:53:27.277Z,98031.92
2018-11-29T18:56:02.106Z,98030.73
2018-11-29T18:58:36.788Z,98024.86
2018-11-29T19:01:11.957Z,98020.41
2018-11-29T19:03:46.754Z,98023.86
2018-11-29T19:06:21.482Z,98028.28
2018-11-29T19:08:56.294Z,98015.86
2018-11-29T19:11:30.952Z,98015.86
2018-11-29T19:14:05.499Z,98030.77
2018-11-29T19:17:38.280Z,98003.06
2018-11-29T19:20:15.753Z,97993.21
2018-11-29T19:22:50.683Z,98001.19
2018-11-29T19:25:26.075Z,97997.68
2018-11-29T19:28:00.964Z,97992.62
2018-11-29T19:32:17.296Z,97986.31
2018-11-29T19:34:50.404Z,98006.52
2018-11-29T19:37:25.126Z,97993.88
2018-11-29T19:40:01.296Z,97994.30
2018-11-29T19:42:36.288Z,97987.74
2018-11-29T19:45:10.345Z,98012.98
2018-11-29T19:47:43.286Z,97991.13
2018-11-29T19:50:27.317Z,97987.34
2018-11-29T19:53:03.606Z,97986.97
2018-11-29T19:55:37.303Z,97995.88
2018-11-29T19:58:10.319Z,97992.95
2018-11-29T20:00:49.033Z,97979.61
2018-11-29T20:03:23.932Z,97987.04
2018-11-29T20:05:58.413Z,98013.88
2018-11-29T20:08:33.291Z,97968.25
2018-11-29T20:11:08.514Z,97968.25
2018-11-29T20:13:43.298Z,97976.27
2018-11-29T20:16:18.276Z,97970.86
2018-11-29T20:18:51.162Z,97972.03
2018-11-29T20:21:25.950Z,97981.47
2018-11-29T20:24:00.405Z,97979.00
2018-11-29T20:26:35.289Z,97971.59
2018-11-29T20:29:08.009Z,97971.59
2018-11-29T20:31:42.800Z,97982.16
2018-11-29T20:34:18.621Z,97966.30
2018-11-29T20:36:53.287Z,97965.59
2018-11-29T20:39:26.405Z,97965.59
2018-11-29T20:42:01.294Z,97962.75
2018-11-29T20:44:34.302Z,97962.75
2018-11-29T20:47:09.285Z,97967.47
2018-11-29T20:49:42.287Z,97958.33
2018-11-29T20:52:16.964Z,97958.96
2018-11-29T20:57:49.865Z,97958.45
2018-11-29T21:00:24.747Z,97940.98
2018-11-29T21:02:59.290Z,97942.03
2018-11-29T21:05:34.596Z,97942.03
2018-11-29T21:08:10.301Z,97966.91
2018-11-29T21:10:45.299Z,97951.55
2018-11-29T21:13:18.282Z,97955.59
2018-11-29T21:17:21.333Z,97941.84
2018-11-29T21:19:54.307Z,97944.08
2018-11-29T21:22:27.077Z,97942.34
2018-11-29T21:25:02.299Z,97934.11
2018-11-29T21:27:36.956Z,97922.98
2018-11-29T21:30:20.300Z,97922.98
2018-11-29T21:32:53.382Z,97921.11
2018-11-29T21:35:26.720Z,97921.11
2018-11-29T21:38:01.528Z,97933.76
2018-11-29T21:40:35.839Z,97921.48
2018-11-29T21:43:10.411Z,97912.28
2018-11-29T21:45:47.536Z,97918.38
2018-11-29T21:48:22.297Z,97900.11
2018-11-29T21:50:59.292Z,97900.11
2018-11-29T21:53:32.061Z,97892.61
2018-11-29T21:56:06.953Z,97891.37
2018-11-29T21:58:41.913Z,97878.13
2018-11-29T22:01:16.747Z,97859.50
2018-11-29T22:03:51.536Z,97859.50
2018-11-29T22:06:24.285Z,97848.73
2018-11-29T22:08:56.685Z,97862.53
2018-11-29T22:11:31.686Z,97848.97
2018-11-29T22:14:06.442Z,97839.88
2018-11-29T22:16:43.347Z,97817.16
2018-11-29T22:19:18.344Z,97852.36
2018-11-29T22:21:53.282Z,97852.36
2018-11-29T22:24:26.325Z,97835.66
2018-11-29T22:27:01.294Z,97815.89
2018-11-29T22:29:35.438Z,97842.60
2018-11-29T22:32:10.281Z,97833.27
2018-11-29T22:34:43.283Z,97844.67
2018-11-29T22:37:17.739Z,97854.83
2018-11-29T22:39:52.743Z,97847.20
2018-11-29T22:42:25.330Z,97831.88
2018-11-29T22:44:58.295Z,97815.78
2018-11-29T22:47:31.272Z,97815.78
2018-11-29T22:50:06.305Z,97812.36
2018-11-29T22:52:41.121Z,97807.64
2018-11-29T22:55:16.344Z,97798.11
2018-11-29T22:57:48.993Z,97796.91
2018-11-29T23:00:24.327Z,97798.09
2018-11-29T23:02:57.290Z,97818.66
2018-11-29T23:05:32.324Z,97833.72
2018-11-29T23:08:07.283Z,97881.59
2018-11-29T23:10:45.035Z,97881.59
2018-11-29T23:13:19.956Z,97865.37
2018-11-29T23:15:54.790Z,97899.26
2018-11-29T23:18:29.391Z,97894.88
2018-11-29T23:21:04.292Z,97907.38
2018-11-29T23:23:37.131Z,97907.38
2018-11-29T23:26:12.295Z,97931.40
2018-11-29T23:28:45.085Z,97938.22
2018-11-29T23:31:19.791Z,97927.70
2018-11-29T23:33:54.709Z,97937.63
2018-11-29T23:36:29.285Z,97954.17
2018-11-29T23:39:02.301Z,97937.39
2018-11-29T23:41:37.277Z,97940.11
2018-11-29T23:44:10.117Z,97928.25
2018-11-29T23:46:45.107Z,97932.77
2018-11-29T23:49:20.346Z,97931.48
2018-11-29T23:51:55.314Z,97917.88
2018-11-29T23:54:28.337Z,97917.88
2018-11-29T23:57:02.955Z,97899.00
2018-11-29T23:59:39.326Z,97911.62
